Bristow, KY

1:36 AM CST op 09 december 2016 (GMT -0600)
Clearing in wooded area | | Change Station

Hoogte 614 ft 37.05 °N, 86.38 °W | Updated 4 seconds ago

Merendeels bewolkt
Merendeels bewolkt
27.0 °F
Voelt als 27 °F
N
1.0
Wind Variabel Wind van zuid
Gusts 0.0 mijl/u

Vandaag
Hoog -- | Laag -- °F
--% Kans op neerslag
Gisteren
Hoog -- | Laag -- °F
Precip. -- inches
Druk 30.55 inches
Zicht 10.0 mijlen
Wolken Geheel bewolkt 2900 ft
Gevoelstemperatuur 27 °F
Dauwpunt 13 °F
Vochtigheid 55%
Neerslag 0.00 inches
Dikte sneeuw Niet beschikbaar.
6:47 AM 4:28 PM
Wassende maan, 71% visible
METAR KBWG 090653Z AUTO 35008G14KT 10SM OVC029 M03/M09 A3053 RMK AO2 SLP344 T10281094
Druk 30.55 inches
Zicht 10.0 mijlen
Wolken Geheel bewolkt 2900 ft
Gevoelstemperatuur 27 °F
Dauwpunt 13 °F
Vochtigheid 55%
Neerslag 0.00 inches
Dikte sneeuw Niet beschikbaar.
6:47 AM 4:28 PM
Wassende maan, 71% visible
METAR KBWG 090653Z AUTO 35008G14KT 10SM OVC029 M03/M09 A3053 RMK AO2 SLP344 T10281094

10-Day Weather Forecast

Almanac

Astronomie

Dec. 09, 2016 Opkomst Ondergang
Werkelijke tijd
Burgerlijke schemering
Nautische schemering
Astronomische schemering
Maan
Golflengte van het zichtbare licht
Daglengte
Tomorrow will be .
, % of the Moon is Illuminated

Extremen vandaag

State Highs State Lows

Community

WunderPhotos

Upload Photos

1,956,374 foto’s ge-upload!

WunderBlog® & News

Nearby

Luchtkwaliteit

  Luchtkwaliteit LK-index Verontreinigende stof
Not available.

Dikte sneeuw

Station Depth Geometrische hoogte

Aardbevingen

Stad Distance Mag. Time & Date
Minimum magnitude displayed is 2.5.

Watertemperatuur langs de kust

Plaats Temperatuur

Stations

Nabije weerstations

Locatie station Temp. Gevoelstemperatuur Dauwpunt Vochtigheid Wind Precip. Hoogte Geactualiseerd Type
                   

Watches & Warnings

There are currently no watches in effect.